Time;durP1;ratioP1;P1;durP2;ratioP2;P2;SDS_P1;SDS_P2;PMS_P1;PMS_P2;Temp;Humidity;BMP_temperature;BMP_pressure;BME280_temperature;BME280_humidity;BME280_pressure;Samples;Min_cycle;Max_cycle;Signal;HPM_P1;HPM_P2
2024/01/30 00:01:51;;;;;;;9.37;4.20;;;;;;;;;;6111928;23;20417;-91
2024/01/30 00:04:18;;;;;;;4.27;3.10;;;;;;;;;;6114820;23;20832;-90
2024/01/30 00:06:45;;;;;;;4.47;3.80;;;;;;;;;;6116145;23;20412;-90
2024/01/30 00:09:11;;;;;;;5.27;4.03;;;;;;;;;;6114858;23;20856;-90
2024/01/30 00:11:38;;;;;;;6.93;3.23;;;;;;;;;;6114970;23;20927;-89
2024/01/30 00:14:05;;;;;;;5.40;4.43;;;;;;;;;;6114695;23;20389;-91
2024/01/30 00:16:32;;;;;;;5.40;4.03;;;;;;;;;;6117155;23;20412;-91
2024/01/30 00:19:02;;;;;;;4.67;3.60;;;;;;;;;;6115321;23;20912;-90
2024/01/30 00:21:30;;;;;;;7.33;4.07;;;;;;;;;;6113481;23;20520;-90
2024/01/30 00:23:57;;;;;;;6.83;3.90;;;;;;;;;;6169606;23;20841;-91
2024/01/30 00:26:23;;;;;;;8.10;5.00;;;;;;;;;;6138012;23;20431;-90
2024/01/30 00:28:49;;;;;;;5.00;3.90;;;;;;;;;;6137955;23;20396;-90
2024/01/30 00:31:15;;;;;;;3.77;3.43;;;;;;;;;;6137684;23;20481;-91
2024/01/30 00:33:41;;;;;;;4.93;3.53;;;;;;;;;;6115642;23;20495;-91
2024/01/30 00:36:08;;;;;;;7.27;3.90;;;;;;;;;;6113423;23;20399;-90
2024/01/30 00:38:34;;;;;;;4.60;3.50;;;;;;;;;;6114497;23;20439;-90
2024/01/30 00:41:01;;;;;;;5.23;4.07;;;;;;;;;;6113314;23;20384;-91
2024/01/30 00:43:27;;;;;;;5.30;3.63;;;;;;;;;;6114055;23;20434;-91
2024/01/30 00:45:53;;;;;;;4.23;3.83;;;;;;;;;;6114111;23;20412;-91
2024/01/30 00:48:21;;;;;;;5.13;3.33;;;;;;;;;;6141644;23;21034;-90
2024/01/30 00:50:47;;;;;;;6.90;4.10;;;;;;;;;;6112641;23;20385;-90
2024/01/30 00:53:13;;;;;;;4.27;3.20;;;;;;;;;;6113768;23;21089;-91
2024/01/30 00:55:39;;;;;;;5.33;4.17;;;;;;;;;;6113664;23;20440;-90
2024/01/30 00:58:05;;;;;;;7.63;4.10;;;;;;;;;;6130599;23;20416;-91
2024/01/30 01:00:32;;;;;;;4.17;3.60;;;;;;;;;;6079005;23;20387;-90
2024/01/30 01:02:58;;;;;;;7.23;4.00;;;;;;;;;;6103490;23;20371;-91
2024/01/30 01:05:24;;;;;;;3.60;3.30;;;;;;;;;;6081964;23;20757;-91
2024/01/30 01:07:52;;;;;;;4.23;3.00;;;;;;;;;;6081574;23;20842;-91
2024/01/30 01:10:18;;;;;;;5.00;3.00;;;;;;;;;;6080009;23;20437;-91
2024/01/30 01:12:44;;;;;;;6.60;4.10;;;;;;;;;;6078786;23;20430;-90
2024/01/30 01:15:10;;;;;;;7.23;3.47;;;;;;;;;;6081540;23;20438;-92
2024/01/30 01:17:37;;;;;;;5.97;4.47;;;;;;;;;;6105680;23;20375;-91
2024/01/30 01:20:05;;;;;;;5.40;3.50;;;;;;;;;;6084423;23;20747;-90
2024/01/30 01:22:31;;;;;;;5.00;3.97;;;;;;;;;;6079842;23;20386;-90
2024/01/30 01:25:08;;;;;;;4.53;3.60;;;;;;;;;;6079508;23;20469;-91
2024/01/30 01:27:38;;;;;;;6.47;3.57;;;;;;;;;;6076181;23;20382;-91
2024/01/30 01:30:08;;;;;;;3.90;3.30;;;;;;;;;;6085189;23;20397;-88
2024/01/30 01:32:38;;;;;;;4.50;3.43;;;;;;;;;;6155191;23;20463;-90
2024/01/30 01:35:13;;;;;;;4.77;4.30;;;;;;;;;;6109485;23;20812;-89
2024/01/30 01:37:47;;;;;;;5.73;3.60;;;;;;;;;;6168021;23;20390;-91
2024/01/30 01:40:13;;;;;;;7.40;3.60;;;;;;;;;;6172648;23;20371;-90
2024/01/30 01:42:40;;;;;;;5.07;3.63;;;;;;;;;;6137045;23;20409;-91
2024/01/30 01:45:06;;;;;;;3.73;3.43;;;;;;;;;;6112539;23;20381;-91
2024/01/30 01:47:32;;;;;;;3.20;2.93;;;;;;;;;;6141807;23;20410;-90
2024/01/30 01:49:58;;;;;;;6.13;4.10;;;;;;;;;;6112448;23;20377;-90
2024/01/30 01:52:24;;;;;;;3.60;2.90;;;;;;;;;;6116499;23;20485;-90
2024/01/30 01:54:50;;;;;;;5.37;3.40;;;;;;;;;;6112909;23;20396;-91
2024/01/30 01:57:16;;;;;;;8.27;4.50;;;;;;;;;;6081150;23;20476;-91
2024/01/30 01:59:42;;;;;;;4.20;3.80;;;;;;;;;;6079791;23;20418;-91
2024/01/30 02:02:08;;;;;;;5.47;4.50;;;;;;;;;;6081712;23;20438;-89
2024/01/30 02:04:34;;;;;;;6.13;4.37;;;;;;;;;;6080548;23;20446;-90
2024/01/30 02:07:00;;;;;;;6.03;3.37;;;;;;;;;;6080222;23;20391;-92
2024/01/30 02:09:26;;;;;;;4.17;3.50;;;;;;;;;;6080071;23;20465;-91
2024/01/30 02:11:52;;;;;;;4.07;3.70;;;;;;;;;;6077965;23;20434;-91
2024/01/30 02:14:18;;;;;;;4.30;3.30;;;;;;;;;;6101187;23;20417;-91
2024/01/30 02:16:44;;;;;;;6.20;3.00;;;;;;;;;;6090975;23;20402;-91
2024/01/30 02:19:11;;;;;;;4.13;3.70;;;;;;;;;;6093705;23;20402;-91
2024/01/30 02:21:37;;;;;;;8.50;2.90;;;;;;;;;;6094566;23;20510;-91
2024/01/30 02:24:05;;;;;;;3.77;3.07;;;;;;;;;;6095038;23;20398;-91
2024/01/30 02:26:30;;;;;;;6.80;4.00;;;;;;;;;;6094055;23;20929;-91
2024/01/30 02:28:56;;;;;;;4.80;4.40;;;;;;;;;;6141843;23;20365;-89
2024/01/30 02:31:25;;;;;;;9.40;4.63;;;;;;;;;;6115492;23;20460;-90
2024/01/30 02:33:51;;;;;;;7.00;4.20;;;;;;;;;;6113324;23;20487;-89
2024/01/30 02:36:18;;;;;;;8.40;5.27;;;;;;;;;;6111689;23;20389;-90
2024/01/30 02:38:46;;;;;;;6.00;4.00;;;;;;;;;;6115456;23;20714;-90
2024/01/30 02:41:12;;;;;;;4.43;4.03;;;;;;;;;;6048823;23;20535;-90
2024/01/30 02:43:38;;;;;;;4.70;3.57;;;;;;;;;;6052944;23;20388;-90
2024/01/30 02:46:04;;;;;;;5.17;3.67;;;;;;;;;;6076462;23;20475;-90
2024/01/30 02:48:30;;;;;;;4.33;3.93;;;;;;;;;;6052864;23;20383;-89
2024/01/30 02:50:57;;;;;;;6.80;3.50;;;;;;;;;;6098773;23;20520;-89
2024/01/30 02:53:24;;;;;;;5.97;3.43;;;;;;;;;;6086391;23;20386;-91
2024/01/30 02:55:50;;;;;;;4.70;4.03;;;;;;;;;;6083687;23;20402;-91
2024/01/30 02:58:16;;;;;;;3.60;3.30;;;;;;;;;;6088166;23;20469;-91
2024/01/30 03:00:42;;;;;;;3.30;2.90;;;;;;;;;;6086892;23;20381;-91
2024/01/30 03:03:08;;;;;;;3.40;3.10;;;;;;;;;;6087492;23;20385;-91
2024/01/30 03:05:35;;;;;;;3.23;2.93;;;;;;;;;;6086189;23;20377;-91
2024/01/30 03:08:01;;;;;;;3.67;2.90;;;;;;;;;;6087694;23;20386;-91
2024/01/30 03:10:29;;;;;;;3.60;2.77;;;;;;;;;;6086003;23;20382;-91
2024/01/30 03:12:55;;;;;;;3.00;2.70;;;;;;;;;;6087901;23;20484;-91
2024/01/30 03:15:21;;;;;;;3.00;2.77;;;;;;;;;;6085340;23;20373;-91
2024/01/30 03:17:46;;;;;;;20.33;3.23;;;;;;;;;;6105880;23;20387;-91
2024/01/30 03:20:13;;;;;;;4.07;3.60;;;;;;;;;;6175227;23;20387;-92
2024/01/30 03:22:39;;;;;;;3.30;2.50;;;;;;;;;;6177657;23;20383;-91
2024/01/30 03:25:06;;;;;;;3.07;2.87;;;;;;;;;;6174638;23;20417;-90
2024/01/30 03:27:33;;;;;;;3.57;3.23;;;;;;;;;;6174748;23;20379;-91
2024/01/30 03:29:59;;;;;;;3.40;3.20;;;;;;;;;;6175403;23;20387;-92
2024/01/30 03:32:26;;;;;;;3.17;2.87;;;;;;;;;;6174200;23;20425;-91
2024/01/30 03:34:52;;;;;;;3.30;2.80;;;;;;;;;;6175790;23;20395;-92
2024/01/30 03:37:18;;;;;;;3.37;2.80;;;;;;;;;;6173927;23;20379;-91
2024/01/30 03:39:44;;;;;;;3.57;3.27;;;;;;;;;;6175712;23;20379;-91
2024/01/30 03:42:10;;;;;;;4.80;3.83;;;;;;;;;;6174414;23;20383;-91
2024/01/30 03:44:36;;;;;;;3.87;3.00;;;;;;;;;;6177035;23;20772;-91
2024/01/30 03:47:02;;;;;;;6.47;3.30;;;;;;;;;;6173797;23;20388;-91
2024/01/30 03:49:29;;;;;;;5.83;3.37;;;;;;;;;;6177110;23;20387;-91
2024/01/30 03:51:55;;;;;;;3.43;3.07;;;;;;;;;;6174280;23;20442;-91
2024/01/30 03:54:21;;;;;;;5.30;3.47;;;;;;;;;;6175542;23;20394;-91
2024/01/30 03:56:47;;;;;;;2.57;2.30;;;;;;;;;;6174948;23;20379;-91
2024/01/30 03:59:15;;;;;;;3.50;3.20;;;;;;;;;;6175911;23;20379;-91
2024/01/30 04:01:41;;;;;;;4.73;2.63;;;;;;;;;;6173523;23;20386;-91
2024/01/30 04:04:07;;;;;;;6.73;3.40;;;;;;;;;;6174758;23;20375;-91
2024/01/30 04:06:33;;;;;;;4.93;3.47;;;;;;;;;;6174113;23;20379;-91
2024/01/30 04:08:59;;;;;;;10.87;5.23;;;;;;;;;;6173808;23;20877;-90
2024/01/30 04:11:26;;;;;;;7.00;4.77;;;;;;;;;;6174492;23;20423;-91
2024/01/30 04:13:53;;;;;;;7.47;4.40;;;;;;;;;;6171223;23;20403;-91
2024/01/30 04:16:23;;;;;;;9.10;5.23;;;;;;;;;;6176446;23;20422;-91
2024/01/30 04:18:49;;;;;;;4.47;3.43;;;;;;;;;;6173371;23;20394;-92
2024/01/30 04:21:15;;;;;;;5.60;4.20;;;;;;;;;;6174544;23;20402;-91
2024/01/30 04:23:41;;;;;;;11.87;6.87;;;;;;;;;;6173100;23;20470;-91
2024/01/30 04:26:07;;;;;;;4.83;2.87;;;;;;;;;;6175546;23;20462;-90
2024/01/30 04:28:34;;;;;;;6.13;3.47;;;;;;;;;;6173957;23;20703;-91
2024/01/30 04:31:03;;;;;;;5.70;4.40;;;;;;;;;;6201080;23;20480;-91
2024/01/30 04:33:29;;;;;;;9.53;4.73;;;;;;;;;;6197612;23;20445;-91
2024/01/30 04:35:55;;;;;;;6.23;4.30;;;;;;;;;;6173122;23;20359;-91
2024/01/30 04:38:21;;;;;;;4.40;3.77;;;;;;;;;;6173847;23;20494;-91
2024/01/30 04:40:47;;;;;;;4.00;3.60;;;;;;;;;;6172291;23;20470;-92
2024/01/30 04:43:15;;;;;;;4.27;2.70;;;;;;;;;;6172846;23;20375;-91
2024/01/30 04:45:42;;;;;;;4.20;3.20;;;;;;;;;;6173817;23;20450;-91
2024/01/30 04:48:08;;;;;;;3.03;2.63;;;;;;;;;;6174659;23;20445;-91
2024/01/30 04:50:36;;;;;;;5.93;3.07;;;;;;;;;;6199456;23;20415;-91
2024/01/30 04:53:02;;;;;;;3.03;2.73;;;;;;;;;;6175014;22;20456;-91
2024/01/30 04:55:29;;;;;;;4.03;3.30;;;;;;;;;;6174476;23;20379;-91
2024/01/30 04:57:55;;;;;;;5.50;3.33;;;;;;;;;;6173382;23;20394;-90
2024/01/30 05:00:21;;;;;;;5.27;3.30;;;;;;;;;;6174323;23;20407;-92
2024/01/30 05:02:46;;;;;;;4.07;3.67;;;;;;;;;;6177048;23;20383;-91
2024/01/30 05:05:13;;;;;;;2.90;2.63;;;;;;;;;;6172380;23;20386;-91
2024/01/30 05:07:41;;;;;;;6.57;2.83;;;;;;;;;;6173457;23;20419;-91
2024/01/30 05:10:08;;;;;;;2.50;2.30;;;;;;;;;;6175109;23;21005;-91
2024/01/30 05:12:34;;;;;;;9.37;3.63;;;;;;;;;;6198405;23;20421;-91
2024/01/30 05:15:00;;;;;;;3.73;2.53;;;;;;;;;;6173899;23;20390;-92
2024/01/30 05:17:28;;;;;;;2.67;2.43;;;;;;;;;;6174199;23;20375;-91
2024/01/30 05:19:55;;;;;;;3.27;2.70;;;;;;;;;;6172925;23;20390;-92
2024/01/30 05:22:21;;;;;;;7.03;3.27;;;;;;;;;;6177939;23;20450;-91
2024/01/30 05:24:48;;;;;;;4.30;3.00;;;;;;;;;;6172903;23;20897;-92
2024/01/30 05:27:15;;;;;;;3.27;3.07;;;;;;;;;;6175219;23;20379;-90
2024/01/30 05:29:41;;;;;;;4.00;3.13;;;;;;;;;;6173040;23;20441;-90
2024/01/30 05:32:07;;;;;;;5.37;3.00;;;;;;;;;;6176608;23;20415;-91
2024/01/30 05:34:33;;;;;;;5.83;2.67;;;;;;;;;;6138699;23;20472;-90
2024/01/30 05:36:59;;;;;;;3.73;3.03;;;;;;;;;;6164253;23;20485;-90
2024/01/30 05:39:25;;;;;;;3.50;3.20;;;;;;;;;;6162453;23;20381;-91
2024/01/30 05:41:53;;;;;;;3.70;3.40;;;;;;;;;;6161749;23;20440;-91
2024/01/30 05:44:19;;;;;;;3.37;2.77;;;;;;;;;;6161795;23;20384;-89
2024/01/30 05:46:45;;;;;;;3.87;2.97;;;;;;;;;;6164942;23;20456;-90
2024/01/30 05:49:11;;;;;;;3.07;2.77;;;;;;;;;;6161233;23;20884;-90
2024/01/30 05:51:37;;;;;;;5.27;2.60;;;;;;;;;;6158810;23;20420;-89
2024/01/30 05:54:04;;;;;;;2.80;2.60;;;;;;;;;;6159735;23;20397;-91
2024/01/30 05:56:30;;;;;;;6.83;4.17;;;;;;;;;;6162410;23;20476;-91
2024/01/30 05:58:56;;;;;;;3.90;2.53;;;;;;;;;;6162453;23;20957;-90
2024/01/30 06:01:22;;;;;;;3.17;2.90;;;;;;;;;;6164452;23;20424;-91
2024/01/30 06:03:49;;;;;;;5.30;2.77;;;;;;;;;;6163787;23;20853;-91
2024/01/30 06:06:16;;;;;;;4.03;2.53;;;;;;;;;;6166899;23;20384;-91
2024/01/30 06:08:42;;;;;;;3.70;2.73;;;;;;;;;;6165695;23;20691;-90
2024/01/30 06:11:11;;;;;;;2.93;2.50;;;;;;;;;;6175771;23;20486;-90
2024/01/30 06:13:37;;;;;;;5.27;2.73;;;;;;;;;;6176442;23;20383;-90
2024/01/30 06:16:04;;;;;;;3.57;2.70;;;;;;;;;;6175834;23;20379;-90
2024/01/30 06:18:31;;;;;;;5.17;4.03;;;;;;;;;;6176509;23;20379;-90
2024/01/30 06:21:01;;;;;;;5.27;3.27;;;;;;;;;;6176832;23;20379;-91
2024/01/30 06:23:27;;;;;;;3.50;2.87;;;;;;;;;;6178873;23;20402;-90
2024/01/30 06:25:54;;;;;;;4.30;3.90;;;;;;;;;;6175552;23;20414;-90
2024/01/30 06:28:21;;;;;;;2.73;2.53;;;;;;;;;;6177935;23;20449;-91
2024/01/30 06:30:47;;;;;;;5.07;3.73;;;;;;;;;;6201709;23;20418;-91
2024/01/30 06:33:13;;;;;;;3.60;3.30;;;;;;;;;;6200577;23;20367;-87
2024/01/30 06:35:42;;;;;;;6.03;3.40;;;;;;;;;;6175006;22;20379;-90
2024/01/30 06:38:09;;;;;;;2.87;2.67;;;;;;;;;;6178460;23;20453;-91
2024/01/30 06:40:36;;;;;;;8.53;3.53;;;;;;;;;;6174926;23;20371;-89
2024/01/30 06:43:02;;;;;;;3.13;2.83;;;;;;;;;;6176493;23;20387;-90
2024/01/30 06:45:28;;;;;;;6.23;5.33;;;;;;;;;;6172447;23;20433;-91
2024/01/30 06:47:55;;;;;;;11.20;4.40;;;;;;;;;;6174339;23;20414;-91
2024/01/30 06:50:22;;;;;;;5.13;3.30;;;;;;;;;;6176347;23;20380;-94
2024/01/30 06:52:49;;;;;;;3.50;3.20;;;;;;;;;;6204414;23;20446;-96
2024/01/30 06:55:15;;;;;;;4.47;3.03;;;;;;;;;;6178855;22;20409;-96
2024/01/30 06:57:41;;;;;;;4.60;3.20;;;;;;;;;;6177757;23;20413;-95
2024/01/30 07:00:08;;;;;;;5.50;3.20;;;;;;;;;;6177096;23;20383;-94
2024/01/30 07:02:38;;;;;;;4.47;2.93;;;;;;;;;;6177595;23;20466;-96
2024/01/30 07:05:04;;;;;;;5.90;4.20;;;;;;;;;;6147238;23;20713;-94
2024/01/30 07:07:30;;;;;;;4.70;3.80;;;;;;;;;;6171311;23;20385;-96
2024/01/30 07:09:56;;;;;;;6.83;3.33;;;;;;;;;;6134263;23;20395;-96
2024/01/30 07:12:25;;;;;;;4.00;2.93;;;;;;;;;;6107682;23;20449;-95
2024/01/30 07:15:08;;;;;;;5.37;3.73;;;;;;;;;;6086953;23;20383;-96
2024/01/30 07:17:49;;;;;;;7.83;3.43;;;;;;;;;;6107366;23;20388;-96
2024/01/30 07:20:15;;;;;;;4.53;3.97;;;;;;;;;;6081763;23;20395;-96
2024/01/30 07:22:44;;;;;;;4.73;3.20;;;;;;;;;;6082320;23;20386;-96
2024/01/30 07:25:10;;;;;;;4.57;3.40;;;;;;;;;;6083590;23;20426;-96
2024/01/30 07:27:44;;;;;;;4.87;2.30;;;;;;;;;;6086186;23;20386;-96
2024/01/30 07:30:10;;;;;;;4.73;3.37;;;;;;;;;;6085056;23;20370;-95
2024/01/30 07:32:36;;;;;;;4.33;2.83;;;;;;;;;;6110054;23;20422;-95
2024/01/30 07:35:06;;;;;;;3.40;2.80;;;;;;;;;;6087693;23;20398;-95
2024/01/30 07:37:32;;;;;;;4.00;3.33;;;;;;;;;;6085925;23;20370;-95
2024/01/30 07:39:58;;;;;;;7.53;4.17;;;;;;;;;;6109934;23;20484;-95
2024/01/30 07:42:25;;;;;;;3.83;2.90;;;;;;;;;;6086917;23;20386;-93
2024/01/30 08:05:48;;;;;;;3.87;3.47;;;;;;;;;;6169438;23;20511;-94
2024/01/30 08:08:14;;;;;;;4.17;3.80;;;;;;;;;;6174449;23;20378;-95
2024/01/30 08:10:40;;;;;;;4.20;3.80;;;;;;;;;;6170697;23;20384;-94
2024/01/30 08:13:08;;;;;;;5.00;3.53;;;;;;;;;;6172407;23;20450;-92
2024/01/30 08:15:34;;;;;;;5.50;4.10;;;;;;;;;;6172505;23;20385;-95
2024/01/30 08:18:00;;;;;;;6.90;3.30;;;;;;;;;;6173933;23;20392;-96
2024/01/30 08:20:26;;;;;;;4.27;3.63;;;;;;;;;;6169488;23;20412;-92
2024/01/30 08:22:53;;;;;;;4.40;3.30;;;;;;;;;;6170496;23;20385;-93
2024/01/30 08:25:19;;;;;;;7.60;3.87;;;;;;;;;;6172953;23;20400;-94
2024/01/30 08:27:49;;;;;;;13.53;5.10;;;;;;;;;;6176436;23;20421;-95
2024/01/30 08:30:16;;;;;;;5.00;3.27;;;;;;;;;;6180432;23;20434;-96
2024/01/30 08:33:14;;;;;;;6.07;3.50;;;;;;;;;;6132383;23;20447;-94
2024/01/30 08:44:11;;;;;;;6.97;3.40;;;;;;;;;;6177407;23;20497;-94
2024/01/30 08:47:16;;;;;;;5.90;3.10;;;;;;;;;;6141697;23;20404;-93
2024/01/30 08:57:51;;;;;;;7.43;4.47;;;;;;;;;;6234423;23;20421;-94
2024/01/30 09:00:19;;;;;;;7.13;3.90;;;;;;;;;;6235025;23;20861;-94
2024/01/30 09:02:58;;;;;;;9.50;3.77;;;;;;;;;;6208309;23;20647;-94
2024/01/30 09:05:28;;;;;;;4.47;3.97;;;;;;;;;;6213591;23;20387;-94
2024/01/30 09:16:02;;;;;;;4.37;3.97;;;;;;;;;;6175382;23;20432;-95
2024/01/30 09:23:42;;;;;;;7.17;5.13;;;;;;;;;;6176758;23;20480;-93
2024/01/30 09:26:17;;;;;;;6.80;5.60;;;;;;;;;;6177583;23;20389;-95
2024/01/30 09:28:44;;;;;;;6.10;4.87;;;;;;;;;;6125534;23;20397;-91
2024/01/30 09:31:11;;;;;;;5.53;4.90;;;;;;;;;;6161993;23;20423;-89
2024/01/30 09:33:37;;;;;;;5.93;4.93;;;;;;;;;;6159511;23;20385;-90
2024/01/30 09:36:03;;;;;;;10.67;9.20;;;;;;;;;;6135954;23;20444;-91
2024/01/30 09:38:29;;;;;;;8.00;6.87;;;;;;;;;;6163934;23;20405;-88
2024/01/30 09:40:57;;;;;;;9.33;7.13;;;;;;;;;;6160875;23;20369;-90
2024/01/30 09:43:24;;;;;;;11.77;7.90;;;;;;;;;;6140069;23;20373;-88
2024/01/30 09:45:53;;;;;;;14.47;9.50;;;;;;;;;;6183873;23;20390;-89
2024/01/30 09:48:20;;;;;;;10.03;8.00;;;;;;;;;;6162744;23;20383;-93
2024/01/30 09:50:47;;;;;;;8.70;7.80;;;;;;;;;;6157629;23;20844;-88
2024/01/30 09:53:13;;;;;;;11.70;7.83;;;;;;;;;;6161770;23;20428;-93
2024/01/30 09:55:39;;;;;;;11.50;7.43;;;;;;;;;;6158455;23;21261;-89
2024/01/30 09:58:05;;;;;;;8.30;7.50;;;;;;;;;;6162001;23;20412;-87
2024/01/30 10:00:31;;;;;;;9.93;8.90;;;;;;;;;;6158945;23;20451;-88
2024/01/30 10:02:57;;;;;;;10.57;7.67;;;;;;;;;;6159960;23;20535;-91
2024/01/30 10:05:23;;;;;;;20.50;8.10;;;;;;;;;;6163669;23;20428;-89
2024/01/30 10:07:56;;;;;;;17.67;7.70;;;;;;;;;;6162569;23;20482;-90
2024/01/30 10:10:23;;;;;;;13.30;10.60;;;;;;;;;;6158410;23;20480;-90
2024/01/30 10:12:55;;;;;;;10.93;8.97;;;;;;;;;;6185530;23;20436;-91
2024/01/30 10:15:21;;;;;;;10.80;8.50;;;;;;;;;;6187557;23;20411;-91
2024/01/30 10:17:47;;;;;;;13.47;8.67;;;;;;;;;;6140718;23;20373;-89
2024/01/30 10:20:13;;;;;;;8.70;7.60;;;;;;;;;;6140942;23;20357;-94
2024/01/30 10:22:40;;;;;;;9.30;8.13;;;;;;;;;;6163715;23;20381;-85
2024/01/30 10:25:08;;;;;;;9.00;7.63;;;;;;;;;;6132347;23;20400;-85
2024/01/30 10:27:34;;;;;;;5.03;3.90;;;;;;;;;;6133579;23;20392;-84
2024/01/30 10:30:00;;;;;;;7.33;5.40;;;;;;;;;;6138997;23;20353;-84
2024/01/30 10:32:26;;;;;;;11.20;6.87;;;;;;;;;;6136175;23;20416;-85
2024/01/30 10:34:52;;;;;;;4.60;2.97;;;;;;;;;;6158511;23;20381;-85
2024/01/30 10:37:18;;;;;;;2.90;2.60;;;;;;;;;;6129958;23;20452;-84
2024/01/30 10:39:45;;;;;;;2.73;2.10;;;;;;;;;;6155186;23;20447;-84
2024/01/30 10:42:15;;;;;;;4.47;2.50;;;;;;;;;;6156056;23;20396;-84
2024/01/30 10:44:59;;;;;;;5.33;1.83;;;;;;;;;;6160445;23;20378;-87
2024/01/30 10:47:29;;;;;;;4.23;2.37;;;;;;;;;;6179560;23;20752;-83
2024/01/30 10:49:55;;;;;;;2.20;2.00;;;;;;;;;;6133402;23;20369;-84
2024/01/30 10:52:21;;;;;;;7.17;2.83;;;;;;;;;;6155207;23;20919;-88
2024/01/30 10:54:51;;;;;;;6.40;2.60;;;;;;;;;;6159411;23;20393;-89
2024/01/30 10:57:17;;;;;;;3.83;2.63;;;;;;;;;;6182099;23;20380;-84
2024/01/30 10:59:43;;;;;;;10.43;2.67;;;;;;;;;;6159541;23;20377;-86
2024/01/30 11:02:12;;;;;;;2.30;2.10;;;;;;;;;;6158587;23;20699;-91
2024/01/30 11:04:41;;;;;;;3.00;2.00;;;;;;;;;;6164490;23;20793;-90
2024/01/30 11:07:24;;;;;;;4.60;2.37;;;;;;;;;;6184646;23;20452;-88
2024/01/30 11:09:54;;;;;;;4.90;2.90;;;;;;;;;;6164298;23;20377;-92
2024/01/30 11:12:26;;;;;;;2.03;1.60;;;;;;;;;;6159770;23;20421;-92
2024/01/30 11:15:06;;;;;;;37.70;5.90;;;;;;;;;;6163967;23;20395;-94
2024/01/30 11:17:44;;;;;;;4.53;2.90;;;;;;;;;;6185595;23;20387;-96
2024/01/30 11:20:23;;;;;;;2.83;1.80;;;;;;;;;;6161182;23;20668;-93
2024/01/30 11:22:53;;;;;;;1.57;1.47;;;;;;;;;;6163142;23;20385;-95
2024/01/30 11:25:20;;;;;;;2.03;1.83;;;;;;;;;;6189000;23;20409;-93
2024/01/30 11:27:47;;;;;;;3.53;2.00;;;;;;;;;;6158851;23;20439;-94
2024/01/30 11:30:22;;;;;;;2.97;2.00;;;;;;;;;;6161942;23;20967;-93
2024/01/30 11:33:09;;;;;;;2.90;1.83;;;;;;;;;;6186698;23;20416;-92
2024/01/30 11:35:36;;;;;;;2.30;2.10;;;;;;;;;;6136104;23;20464;-93
2024/01/30 11:38:02;;;;;;;2.70;2.40;;;;;;;;;;6161378;23;20399;-91
2024/01/30 11:40:29;;;;;;;7.70;3.80;;;;;;;;;;6158890;23;20384;-93
2024/01/30 11:42:55;;;;;;;3.13;2.40;;;;;;;;;;6158414;23;20393;-93
2024/01/30 11:45:21;;;;;;;2.67;2.33;;;;;;;;;;6134438;23;21247;-92
2024/01/30 11:47:48;;;;;;;6.17;2.20;;;;;;;;;;6160847;23;20373;-94
2024/01/30 11:50:14;;;;;;;2.70;2.13;;;;;;;;;;6184448;23;20395;-93
2024/01/30 11:52:43;;;;;;;3.20;2.47;;;;;;;;;;6157294;23;20448;-93
2024/01/30 11:55:12;;;;;;;7.63;2.50;;;;;;;;;;6162749;23;20436;-93
2024/01/30 11:57:38;;;;;;;4.17;2.10;;;;;;;;;;6157752;23;20391;-95
2024/01/30 12:00:10;;;;;;;2.90;2.53;;;;;;;;;;6162551;23;20385;-92
2024/01/30 12:02:36;;;;;;;3.67;2.90;;;;;;;;;;6158733;23;20353;-91
2024/01/30 12:05:11;;;;;;;4.13;3.17;;;;;;;;;;6163532;23;20392;-92
2024/01/30 12:07:37;;;;;;;2.90;2.60;;;;;;;;;;6134002;23;20360;-96
2024/01/30 12:10:05;;;;;;;2.63;2.37;;;;;;;;;;6159656;23;20408;-91
2024/01/30 12:12:31;;;;;;;4.40;2.47;;;;;;;;;;6166285;23;20421;-94
2024/01/30 12:15:00;;;;;;;4.33;2.87;;;;;;;;;;6136346;23;20369;-92
2024/01/30 12:17:30;;;;;;;4.13;1.90;;;;;;;;;;6159444;23;20793;-89
2024/01/30 12:20:15;;;;;;;3.67;2.70;;;;;;;;;;6141383;23;20873;-94
2024/01/30 12:22:42;;;;;;;27.57;4.67;;;;;;;;;;6158545;23;20420;-91
2024/01/30 12:25:08;;;;;;;5.13;2.33;;;;;;;;;;6165360;23;20427;-92
2024/01/30 12:27:37;;;;;;;16.73;3.50;;;;;;;;;;6162043;23;20475;-95
2024/01/30 12:30:08;;;;;;;5.70;1.90;;;;;;;;;;6172706;23;20396;-94
2024/01/30 12:33:01;;;;;;;2.37;2.00;;;;;;;;;;6197272;23;20585;-94
2024/01/30 12:35:27;;;;;;;4.30;2.13;;;;;;;;;;6203162;23;20457;-92
2024/01/30 12:37:54;;;;;;;2.47;1.90;;;;;;;;;;6197784;23;20428;-94
2024/01/30 12:40:20;;;;;;;4.57;2.00;;;;;;;;;;6195771;23;20426;-93
2024/01/30 12:42:50;;;;;;;2.00;1.83;;;;;;;;;;6200713;23;20817;-96
2024/01/30 12:45:16;;;;;;;3.13;2.00;;;;;;;;;;6201380;23;20374;-93
2024/01/30 12:47:43;;;;;;;3.00;2.70;;;;;;;;;;6192727;23;20389;-91
2024/01/30 12:50:10;;;;;;;3.60;2.10;;;;;;;;;;6197339;23;20389;-92
2024/01/30 12:52:36;;;;;;;3.90;3.07;;;;;;;;;;6192050;23;20457;-90
2024/01/30 12:55:04;;;;;;;3.90;2.70;;;;;;;;;;6191550;23;20421;-92
2024/01/30 12:57:30;;;;;;;4.23;2.00;;;;;;;;;;6196108;23;20371;-93
2024/01/30 12:59:56;;;;;;;2.53;1.80;;;;;;;;;;6197080;23;20418;-92
2024/01/30 13:02:22;;;;;;;2.47;1.93;;;;;;;;;;6218689;23;20375;-91
2024/01/30 13:04:52;;;;;;;2.87;2.60;;;;;;;;;;6196716;23;20410;-91
2024/01/30 13:07:21;;;;;;;2.90;2.63;;;;;;;;;;6218638;23;20394;-93
2024/01/30 13:09:47;;;;;;;3.03;2.00;;;;;;;;;;6218925;23;20379;-94
2024/01/30 13:12:13;;;;;;;3.40;2.60;;;;;;;;;;6194443;23;20494;-93
2024/01/30 13:14:39;;;;;;;3.70;2.83;;;;;;;;;;6193714;23;20379;-91
2024/01/30 13:17:05;;;;;;;7.30;3.50;;;;;;;;;;6193437;23;20374;-91
2024/01/30 13:19:31;;;;;;;5.83;4.00;;;;;;;;;;6191454;23;20445;-92
2024/01/30 13:21:57;;;;;;;6.67;5.97;;;;;;;;;;6192992;23;20767;-93
2024/01/30 13:24:23;;;;;;;9.77;6.93;;;;;;;;;;6190515;23;20400;-91
2024/01/30 13:26:49;;;;;;;8.30;6.80;;;;;;;;;;6192321;23;20379;-92
2024/01/30 13:29:15;;;;;;;12.10;7.30;;;;;;;;;;6191722;23;20413;-91
2024/01/30 13:31:44;;;;;;;6.57;5.80;;;;;;;;;;6218724;23;20430;-93
2024/01/30 13:34:10;;;;;;;9.37;6.50;;;;;;;;;;6193473;23;20399;-88
2024/01/30 13:36:36;;;;;;;6.93;5.83;;;;;;;;;;6221064;23;20415;-92
2024/01/30 13:39:02;;;;;;;6.53;5.30;;;;;;;;;;6217823;23;20378;-90
2024/01/30 13:41:29;;;;;;;6.83;6.13;;;;;;;;;;6193970;23;20387;-90
2024/01/30 13:43:55;;;;;;;10.37;5.90;;;;;;;;;;6194252;23;20920;-90
2024/01/30 13:46:21;;;;;;;8.40;6.50;;;;;;;;;;6197181;23;20415;-92
2024/01/30 13:48:47;;;;;;;11.60;7.10;;;;;;;;;;6196142;23;20909;-92
2024/01/30 13:51:13;;;;;;;14.80;7.63;;;;;;;;;;6197086;23;20383;-90
2024/01/30 13:53:39;;;;;;;13.27;7.43;;;;;;;;;;6194633;23;20379;-90
2024/01/30 13:56:06;;;;;;;12.20;7.90;;;;;;;;;;6194088;23;20372;-93
2024/01/30 13:58:33;;;;;;;7.90;7.10;;;;;;;;;;6218615;23;20371;-93
2024/01/30 14:00:59;;;;;;;17.87;7.70;;;;;;;;;;6198150;23;20379;-92
2024/01/30 14:03:25;;;;;;;19.50;7.23;;;;;;;;;;6193367;23;20367;-92
2024/01/30 14:05:51;;;;;;;16.97;8.60;;;;;;;;;;6198853;23;20385;-92
2024/01/30 14:08:17;;;;;;;14.57;8.37;;;;;;;;;;6194673;23;20375;-90
2024/01/30 14:10:43;;;;;;;9.00;7.70;;;;;;;;;;6198653;23;20395;-89
2024/01/30 14:13:09;;;;;;;13.90;7.70;;;;;;;;;;6195160;23;20427;-92
2024/01/30 14:15:35;;;;;;;18.53;8.90;;;;;;;;;;6197884;23;20388;-93
2024/01/30 14:18:01;;;;;;;10.60;7.30;;;;;;;;;;6195321;23;20410;-92
2024/01/30 14:20:27;;;;;;;12.77;7.00;;;;;;;;;;6195814;23;20387;-92
2024/01/30 14:22:55;;;;;;;11.20;7.90;;;;;;;;;;6197099;23;20399;-92
2024/01/30 14:25:21;;;;;;;8.80;7.90;;;;;;;;;;6164974;23;20396;-91
2024/01/30 14:27:47;;;;;;;21.37;8.87;;;;;;;;;;6135791;23;20446;-91
2024/01/30 14:30:13;;;;;;;12.50;7.63;;;;;;;;;;6166063;23;20419;-92
2024/01/30 14:32:40;;;;;;;12.13;8.33;;;;;;;;;;6136488;23;20439;-92
2024/01/30 14:35:08;;;;;;;15.57;7.73;;;;;;;;;;6141707;23;20480;-93
2024/01/30 14:37:34;;;;;;;19.17;7.97;;;;;;;;;;6138565;23;20431;-92
2024/01/30 14:40:04;;;;;;;9.20;7.43;;;;;;;;;;6140564;23;20388;-92
2024/01/30 14:42:32;;;;;;;12.27;8.30;;;;;;;;;;6140137;23;20909;-93
2024/01/30 14:44:58;;;;;;;11.80;7.20;;;;;;;;;;6140353;23;20410;-92
2024/01/30 14:47:24;;;;;;;16.93;8.07;;;;;;;;;;6138338;23;20380;-92
2024/01/30 14:50:00;;;;;;;10.20;8.20;;;;;;;;;;6136481;23;20376;-91
2024/01/30 14:52:26;;;;;;;9.07;6.77;;;;;;;;;;6136197;23;20431;-92
2024/01/30 14:55:02;;;;;;;9.10;7.20;;;;;;;;;;6138733;23;20368;-94
2024/01/30 14:57:49;;;;;;;10.07;7.70;;;;;;;;;;6219817;23;20355;-90
2024/01/30 15:00:15;;;;;;;16.60;7.77;;;;;;;;;;6192673;23;20450;-92
2024/01/30 15:02:41;;;;;;;9.90;7.17;;;;;;;;;;6193268;23;20363;-92
2024/01/30 15:05:10;;;;;;;8.87;6.80;;;;;;;;;;6193458;23;20378;-92
2024/01/30 15:07:36;;;;;;;11.07;7.20;;;;;;;;;;6189426;23;20387;-91
2024/01/30 15:10:08;;;;;;;11.73;7.80;;;;;;;;;;6187705;23;20367;-88
2024/01/30 15:12:34;;;;;;;12.73;7.30;;;;;;;;;;6196116;23;20415;-90
2024/01/30 15:15:00;;;;;;;11.50;8.10;;;;;;;;;;6213285;23;20401;-86
2024/01/30 15:17:26;;;;;;;7.53;5.57;;;;;;;;;;6192273;23;20382;-89
2024/01/30 15:19:55;;;;;;;16.17;7.57;;;;;;;;;;6215247;23;20399;-90
2024/01/30 15:22:21;;;;;;;12.40;6.83;;;;;;;;;;6193182;23;20410;-91
2024/01/30 15:24:50;;;;;;;9.63;6.90;;;;;;;;;;6192704;23;20494;-91
2024/01/30 15:27:19;;;;;;;11.27;6.97;;;;;;;;;;6193390;23;20383;-90
2024/01/30 15:29:46;;;;;;;10.93;8.23;;;;;;;;;;6192979;23;20387;-89
2024/01/30 15:32:12;;;;;;;17.17;7.27;;;;;;;;;;6193331;23;20423;-91
2024/01/30 15:34:38;;;;;;;14.70;7.40;;;;;;;;;;6192658;23;20465;-90